sensor_id;sensor_type;location;lat;lon;timestamp;pressure;altitude;pressure_sealevel;temperature;humidity
79415;BME280;68864;44.972;19.612;2023-04-01T00:00:49;99373.22;;;16.74;47.50
79415;BME280;68864;44.972;19.612;2023-04-01T00:03:16;99375.50;;;16.79;47.29
79415;BME280;68864;44.972;19.612;2023-04-01T00:05:43;99370.75;;;16.76;47.82
79415;BME280;68864;44.972;19.612;2023-04-01T00:08:09;99374.00;;;16.75;47.99
79415;BME280;68864;44.972;19.612;2023-04-01T00:10:37;99370.41;;;16.74;48.41
79415;BME280;68864;44.972;19.612;2023-04-01T00:13:04;99356.81;;;16.69;48.24
79415;BME280;68864;44.972;19.612;2023-04-01T00:15:32;99311.94;;;16.42;48.28
79415;BME280;68864;44.972;19.612;2023-04-01T00:17:59;99360.78;;;16.72;48.34
79415;BME280;68864;44.972;19.612;2023-04-01T00:20:26;99348.47;;;16.65;48.66
79415;BME280;68864;44.972;19.612;2023-04-01T00:22:53;99366.31;;;16.55;49.77
79415;BME280;68864;44.972;19.612;2023-04-01T00:25:21;99358.56;;;16.63;49.62
79415;BME280;68864;44.972;19.612;2023-04-01T00:27:49;99374.22;;;16.64;49.87
79415;BME280;68864;44.972;19.612;2023-04-01T00:30:16;99379.41;;;16.65;50.11
79415;BME280;68864;44.972;19.612;2023-04-01T00:32:43;99371.94;;;16.55;50.14
79415;BME280;68864;44.972;19.612;2023-04-01T00:35:10;99376.72;;;16.58;50.72
79415;BME280;68864;44.972;19.612;2023-04-01T00:37:38;99382.31;;;16.62;51.00
79415;BME280;68864;44.972;19.612;2023-04-01T00:40:08;99381.06;;;16.63;51.00
79415;BME280;68864;44.972;19.612;2023-04-01T00:42:35;99386.34;;;16.61;51.64
79415;BME280;68864;44.972;19.612;2023-04-01T00:45:31;99384.88;;;16.53;53.44
79415;BME280;68864;44.972;19.612;2023-04-01T00:48:01;99372.19;;;16.45;52.86
79415;BME280;68864;44.972;19.612;2023-04-01T00:50:31;99335.84;;;16.14;52.96
79415;BME280;68864;44.972;19.612;2023-04-01T00:53:01;99386.06;;;15.89;54.80
79415;BME280;68864;44.972;19.612;2023-04-01T00:55:32;99379.91;;;15.98;55.08
79415;BME280;68864;44.972;19.612;2023-04-01T00:58:02;99380.28;;;16.00;55.36
79415;BME280;68864;44.972;19.612;2023-04-01T01:00:32;99388.72;;;16.00;57.07
79415;BME280;68864;44.972;19.612;2023-04-01T01:02:59;99386.28;;;16.02;57.37
79415;BME280;68864;44.972;19.612;2023-04-01T01:05:38;99387.50;;;16.01;58.20
79415;BME280;68864;44.972;19.612;2023-04-01T01:08:15;99388.72;;;16.00;57.84
79415;BME280;68864;44.972;19.612;2023-04-01T01:10:49;99390.34;;;15.97;58.03
79415;BME280;68864;44.972;19.612;2023-04-01T01:13:19;99392.03;;;15.95;58.52
79415;BME280;68864;44.972;19.612;2023-04-01T01:15:51;99396.78;;;15.74;59.38
79415;BME280;68864;44.972;19.612;2023-04-01T01:18:26;99397.13;;;15.76;58.79
79415;BME280;68864;44.972;19.612;2023-04-01T01:21:21;99399.59;;;15.74;59.48
79415;BME280;68864;44.972;19.612;2023-04-01T01:24:22;99401.53;;;15.54;58.92
79415;BME280;68864;44.972;19.612;2023-04-01T01:27:06;99390.09;;;15.41;58.96
79415;BME280;68864;44.972;19.612;2023-04-01T01:32:59;99382.78;;;15.21;60.41
79415;BME280;68864;44.972;19.612;2023-04-01T01:35:33;99378.78;;;15.18;60.62
79415;BME280;68864;44.972;19.612;2023-04-01T01:38:03;99384.81;;;15.17;60.50
79415;BME280;68864;44.972;19.612;2023-04-01T01:40:33;99390.78;;;15.22;61.22
79415;BME280;68864;44.972;19.612;2023-04-01T01:43:04;99398.03;;;15.20;61.33
79415;BME280;68864;44.972;19.612;2023-04-01T01:45:34;99409.97;;;15.24;61.53
79415;BME280;68864;44.972;19.612;2023-04-01T01:48:03;99407.63;;;15.22;60.74
79415;BME280;68864;44.972;19.612;2023-04-01T01:50:33;99405.66;;;15.19;61.60
79415;BME280;68864;44.972;19.612;2023-04-01T01:53:04;99396.06;;;15.17;61.67
79415;BME280;68864;44.972;19.612;2023-04-01T01:55:33;99399.75;;;15.10;61.48
79415;BME280;68864;44.972;19.612;2023-04-01T01:58:04;99396.59;;;15.08;61.67
79415;BME280;68864;44.972;19.612;2023-04-01T02:00:33;99397.03;;;15.03;61.83
79415;BME280;68864;44.972;19.612;2023-04-01T02:03:00;99383.19;;;14.92;62.29
79415;BME280;68864;44.972;19.612;2023-04-01T02:05:27;99383.09;;;14.69;63.01
79415;BME280;68864;44.972;19.612;2023-04-01T02:08:01;99391.13;;;14.67;62.44
79415;BME280;68864;44.972;19.612;2023-04-01T02:10:31;99393.72;;;14.51;63.48
79415;BME280;68864;44.972;19.612;2023-04-01T02:13:02;99389.31;;;14.50;62.45
79415;BME280;68864;44.972;19.612;2023-04-01T02:15:36;99394.56;;;14.48;62.45
79415;BME280;68864;44.972;19.612;2023-04-01T02:18:04;99388.19;;;14.44;62.16
79415;BME280;68864;44.972;19.612;2023-04-01T02:20:32;99377.78;;;14.44;62.90
79415;BME280;68864;44.972;19.612;2023-04-01T02:23:00;99370.63;;;14.36;63.44
79415;BME280;68864;44.972;19.612;2023-04-01T02:25:30;99358.84;;;14.18;64.02
79415;BME280;68864;44.972;19.612;2023-04-01T02:28:00;99370.56;;;14.09;64.24
79415;BME280;68864;44.972;19.612;2023-04-01T02:30:29;99374.19;;;14.06;65.17
79415;BME280;68864;44.972;19.612;2023-04-01T02:32:58;99372.97;;;14.07;64.88
79415;BME280;68864;44.972;19.612;2023-04-01T02:35:26;99360.22;;;14.03;65.05
79415;BME280;68864;44.972;19.612;2023-04-01T02:37:55;99347.13;;;13.92;66.37
79415;BME280;68864;44.972;19.612;2023-04-01T02:40:24;99345.44;;;14.02;65.25
79415;BME280;68864;44.972;19.612;2023-04-01T02:42:50;99349.56;;;13.87;65.97
79415;BME280;68864;44.972;19.612;2023-04-01T02:45:17;99356.78;;;13.84;66.55
79415;BME280;68864;44.972;19.612;2023-04-01T02:47:44;99360.72;;;13.94;65.68
79415;BME280;68864;44.972;19.612;2023-04-01T02:50:11;99347.78;;;14.04;65.64
79415;BME280;68864;44.972;19.612;2023-04-01T02:52:38;99340.63;;;14.03;65.12
79415;BME280;68864;44.972;19.612;2023-04-01T02:55:06;99346.97;;;14.07;64.97
79415;BME280;68864;44.972;19.612;2023-04-01T02:57:34;99337.72;;;14.10;64.94
79415;BME280;68864;44.972;19.612;2023-04-01T03:00:01;99345.28;;;14.13;64.76
79415;BME280;68864;44.972;19.612;2023-04-01T03:02:28;99339.69;;;14.13;64.42
79415;BME280;68864;44.972;19.612;2023-04-01T03:04:55;99348.44;;;14.18;64.65
79415;BME280;68864;44.972;19.612;2023-04-01T03:07:23;99342.00;;;14.21;64.35
79415;BME280;68864;44.972;19.612;2023-04-01T03:09:50;99338.44;;;14.17;64.53
79415;BME280;68864;44.972;19.612;2023-04-01T03:12:16;99338.00;;;14.22;64.52
79415;BME280;68864;44.972;19.612;2023-04-01T03:14:45;99339.94;;;14.25;64.52
79415;BME280;68864;44.972;19.612;2023-04-01T03:17:11;99330.72;;;14.28;64.27
79415;BME280;68864;44.972;19.612;2023-04-01T03:19:38;99333.16;;;14.23;64.53
79415;BME280;68864;44.972;19.612;2023-04-01T03:22:05;99325.59;;;14.20;64.17
79415;BME280;68864;44.972;19.612;2023-04-01T03:24:31;99317.28;;;14.13;64.52
79415;BME280;68864;44.972;19.612;2023-04-01T03:26:58;99314.16;;;14.04;64.62
79415;BME280;68864;44.972;19.612;2023-04-01T03:29:25;99302.59;;;14.02;65.02
79415;BME280;68864;44.972;19.612;2023-04-01T03:31:53;99264.09;;;13.75;64.67
79415;BME280;68864;44.972;19.612;2023-04-01T03:34:23;99315.47;;;13.96;64.40
79415;BME280;68864;44.972;19.612;2023-04-01T03:36:49;99314.56;;;13.68;67.00
79415;BME280;68864;44.972;19.612;2023-04-01T03:39:17;99308.88;;;13.34;67.41
79415;BME280;68864;44.972;19.612;2023-04-01T03:41:45;99314.66;;;13.13;69.00
79415;BME280;68864;44.972;19.612;2023-04-01T03:44:12;99316.88;;;13.36;68.62
79415;BME280;68864;44.972;19.612;2023-04-01T03:46:38;99310.72;;;13.51;67.78
79415;BME280;68864;44.972;19.612;2023-04-01T03:49:08;99289.84;;;13.60;67.85
79415;BME280;68864;44.972;19.612;2023-04-01T03:51:36;99281.41;;;13.63;67.35
79415;BME280;68864;44.972;19.612;2023-04-01T03:54:03;99285.09;;;13.53;67.39
79415;BME280;68864;44.972;19.612;2023-04-01T03:56:30;99277.81;;;13.63;68.06
79415;BME280;68864;44.972;19.612;2023-04-01T03:58:57;99272.13;;;13.70;67.11
79415;BME280;68864;44.972;19.612;2023-04-01T04:01:23;99278.44;;;13.77;66.78
79415;BME280;68864;44.972;19.612;2023-04-01T04:03:50;99276.84;;;13.80;67.01
79415;BME280;68864;44.972;19.612;2023-04-01T04:06:19;99258.56;;;13.68;67.18
79415;BME280;68864;44.972;19.612;2023-04-01T04:08:46;99279.97;;;13.85;67.25
79415;BME280;68864;44.972;19.612;2023-04-01T04:11:13;99285.53;;;13.89;67.56
79415;BME280;68864;44.972;19.612;2023-04-01T04:13:39;99269.63;;;13.82;67.87
79415;BME280;68864;44.972;19.612;2023-04-01T04:16:07;99257.31;;;13.73;68.56
79415;BME280;68864;44.972;19.612;2023-04-01T04:18:33;99258.66;;;13.58;68.87
79415;BME280;68864;44.972;19.612;2023-04-01T04:21:00;99257.50;;;13.55;68.80
79415;BME280;68864;44.972;19.612;2023-04-01T04:23:29;99249.97;;;13.48;70.20
79415;BME280;68864;44.972;19.612;2023-04-01T04:26:01;99248.00;;;13.45;69.94
79415;BME280;68864;44.972;19.612;2023-04-01T04:28:30;99267.25;;;13.36;69.34
79415;BME280;68864;44.972;19.612;2023-04-01T04:30:57;99262.91;;;13.32;69.40
79415;BME280;68864;44.972;19.612;2023-04-01T04:33:24;99260.13;;;13.32;69.31
79415;BME280;68864;44.972;19.612;2023-04-01T04:35:54;99255.38;;;13.25;69.68
79415;BME280;68864;44.972;19.612;2023-04-01T04:38:21;99238.72;;;13.15;70.35
79415;BME280;68864;44.972;19.612;2023-04-01T04:40:49;99245.09;;;13.15;69.84
79415;BME280;68864;44.972;19.612;2023-04-01T04:43:17;99247.09;;;13.15;69.98
79415;BME280;68864;44.972;19.612;2023-04-01T04:45:44;99226.72;;;13.14;70.52
79415;BME280;68864;44.972;19.612;2023-04-01T04:48:11;99215.69;;;12.93;71.55
79415;BME280;68864;44.972;19.612;2023-04-01T04:50:41;99210.84;;;12.97;70.79
79415;BME280;68864;44.972;19.612;2023-04-01T04:53:09;99208.78;;;13.04;70.50
79415;BME280;68864;44.972;19.612;2023-04-01T04:55:36;99203.19;;;13.04;70.41
79415;BME280;68864;44.972;19.612;2023-04-01T04:58:04;99196.03;;;13.00;70.69
79415;BME280;68864;44.972;19.612;2023-04-01T05:00:31;99193.78;;;12.84;71.85
79415;BME280;68864;44.972;19.612;2023-04-01T05:02:57;99187.91;;;12.71;72.47
79415;BME280;68864;44.972;19.612;2023-04-01T05:05:24;99182.00;;;12.62;72.99
79415;BME280;68864;44.972;19.612;2023-04-01T05:07:51;99198.78;;;12.59;73.78
79415;BME280;68864;44.972;19.612;2023-04-01T05:10:18;99205.56;;;12.58;74.27
79415;BME280;68864;44.972;19.612;2023-04-01T05:12:46;99190.44;;;12.55;74.10
79415;BME280;68864;44.972;19.612;2023-04-01T05:15:14;99194.31;;;12.68;73.42
79415;BME280;68864;44.972;19.612;2023-04-01T05:17:41;99183.13;;;12.68;72.88
79415;BME280;68864;44.972;19.612;2023-04-01T05:20:08;99180.97;;;12.87;72.35
79415;BME280;68864;44.972;19.612;2023-04-01T05:22:35;99180.94;;;12.90;73.15
79415;BME280;68864;44.972;19.612;2023-04-01T05:25:02;99175.56;;;13.10;71.01
79415;BME280;68864;44.972;19.612;2023-04-01T05:27:28;99181.31;;;12.96;71.99
79415;BME280;68864;44.972;19.612;2023-04-01T05:29:55;99176.53;;;12.93;71.92
79415;BME280;68864;44.972;19.612;2023-04-01T05:32:23;99184.97;;;12.86;72.25
79415;BME280;68864;44.972;19.612;2023-04-01T05:34:51;99184.22;;;12.82;72.19
79415;BME280;68864;44.972;19.612;2023-04-01T05:37:18;99179.44;;;12.79;72.17
79415;BME280;68864;44.972;19.612;2023-04-01T05:39:45;99184.72;;;12.69;72.55
79415;BME280;68864;44.972;19.612;2023-04-01T05:42:12;99182.28;;;12.75;72.54
79415;BME280;68864;44.972;19.612;2023-04-01T05:44:39;99177.56;;;12.65;72.99
79415;BME280;68864;44.972;19.612;2023-04-01T05:47:05;99170.78;;;12.66;72.89
79415;BME280;68864;44.972;19.612;2023-04-01T05:49:34;99174.72;;;12.72;72.90
79415;BME280;68864;44.972;19.612;2023-04-01T05:52:01;99178.66;;;12.78;73.15
79415;BME280;68864;44.972;19.612;2023-04-01T05:54:27;99171.06;;;12.79;72.81
79415;BME280;68864;44.972;19.612;2023-04-01T05:56:54;99163.91;;;12.74;73.54
79415;BME280;68864;44.972;19.612;2023-04-01T05:59:21;99155.94;;;12.72;73.40
79415;BME280;68864;44.972;19.612;2023-04-01T06:01:48;99145.59;;;12.66;74.12
79415;BME280;68864;44.972;19.612;2023-04-01T06:04:16;99144.81;;;12.69;74.18
79415;BME280;68864;44.972;19.612;2023-04-01T06:06:44;99148.00;;;12.64;74.66
79415;BME280;68864;44.972;19.612;2023-04-01T06:09:14;99142.84;;;12.62;74.82
79415;BME280;68864;44.972;19.612;2023-04-01T06:11:53;99149.66;;;12.58;75.08
79415;BME280;68864;44.972;19.612;2023-04-01T06:14:31;99132.16;;;12.54;75.24
79415;BME280;68864;44.972;19.612;2023-04-01T06:17:14;99131.63;;;12.66;74.82
79415;BME280;68864;44.972;19.612;2023-04-01T06:19:48;99139.91;;;12.80;73.90
79415;BME280;68864;44.972;19.612;2023-04-01T06:22:40;99137.06;;;12.84;72.62
79415;BME280;68864;44.972;19.612;2023-04-01T06:25:32;99142.72;;;12.77;72.76
79415;BME280;68864;44.972;19.612;2023-04-01T06:31:14;99135.97;;;12.74;71.89
79415;BME280;68864;44.972;19.612;2023-04-01T06:34:06;99139.63;;;12.64;72.63
79415;BME280;68864;44.972;19.612;2023-04-01T06:36:45;99144.06;;;12.61;72.33
79415;BME280;68864;44.972;19.612;2023-04-01T06:39:36;99146.91;;;12.54;72.73
79415;BME280;68864;44.972;19.612;2023-04-01T06:42:21;99141.34;;;12.51;73.13
79415;BME280;68864;44.972;19.612;2023-04-01T06:44:56;99131.31;;;12.57;72.82
79415;BME280;68864;44.972;19.612;2023-04-01T06:47:37;99129.00;;;12.45;73.95
79415;BME280;68864;44.972;19.612;2023-04-01T06:50:18;99124.66;;;12.40;74.16
79415;BME280;68864;44.972;19.612;2023-04-01T06:52:51;99117.44;;;12.46;74.13
79415;BME280;68864;44.972;19.612;2023-04-01T06:55:27;99112.63;;;12.47;74.27
79415;BME280;68864;44.972;19.612;2023-04-01T06:57:58;99119.03;;;12.44;74.74
79415;BME280;68864;44.972;19.612;2023-04-01T07:00:30;99136.19;;;12.49;74.42
79415;BME280;68864;44.972;19.612;2023-04-01T07:03:05;99146.56;;;12.45;74.86
79415;BME280;68864;44.972;19.612;2023-04-01T07:05:33;99167.38;;;12.41;74.76
79415;BME280;68864;44.972;19.612;2023-04-01T07:08:03;99187.75;;;12.38;75.08
79415;BME280;68864;44.972;19.612;2023-04-01T07:10:35;99210.91;;;12.38;76.11
79415;BME280;68864;44.972;19.612;2023-04-01T07:13:14;99236.41;;;12.47;75.46
79415;BME280;68864;44.972;19.612;2023-04-01T07:15:46;99249.50;;;12.57;76.12
79415;BME280;68864;44.972;19.612;2023-04-01T07:18:18;99266.22;;;12.64;75.69
79415;BME280;68864;44.972;19.612;2023-04-01T07:20:48;99269.81;;;12.68;75.85
79415;BME280;68864;44.972;19.612;2023-04-01T07:23:21;99270.16;;;12.74;76.09
79415;BME280;68864;44.972;19.612;2023-04-01T07:25:55;99273.31;;;12.80;76.12
79415;BME280;68864;44.972;19.612;2023-04-01T07:28:30;99272.09;;;12.81;75.59
79415;BME280;68864;44.972;19.612;2023-04-01T07:31:07;99272.88;;;12.85;75.11
79415;BME280;68864;44.972;19.612;2023-04-01T07:33:43;99271.22;;;12.91;74.66
79415;BME280;68864;44.972;19.612;2023-04-01T07:36:14;99272.41;;;12.93;75.73
79415;BME280;68864;44.972;19.612;2023-04-01T07:38:54;99280.75;;;12.97;75.51
79415;BME280;68864;44.972;19.612;2023-04-01T07:41:32;99283.56;;;12.97;75.59
79415;BME280;68864;44.972;19.612;2023-04-01T07:44:10;99277.19;;;12.96;75.33
79415;BME280;68864;44.972;19.612;2023-04-01T07:46:56;99264.81;;;12.94;75.54
79415;BME280;68864;44.972;19.612;2023-04-01T07:49:32;99269.09;;;13.09;74.92
79415;BME280;68864;44.972;19.612;2023-04-01T07:52:06;99267.03;;;13.17;74.53
79415;BME280;68864;44.972;19.612;2023-04-01T07:54:41;99261.50;;;13.13;73.77
79415;BME280;68864;44.972;19.612;2023-04-01T07:57:19;99257.91;;;13.09;73.62
79415;BME280;68864;44.972;19.612;2023-04-01T07:59:53;99252.72;;;13.07;74.25
79415;BME280;68864;44.972;19.612;2023-04-01T08:02:30;99249.97;;;13.00;74.27
79415;BME280;68864;44.972;19.612;2023-04-01T08:05:04;99251.56;;;13.01;73.76
79415;BME280;68864;44.972;19.612;2023-04-01T08:07:42;99238.72;;;13.07;73.70
79415;BME280;68864;44.972;19.612;2023-04-01T08:10:14;99235.94;;;13.04;73.99
79415;BME280;68864;44.972;19.612;2023-04-01T08:12:54;99236.72;;;13.08;73.55
79415;BME280;68864;44.972;19.612;2023-04-01T08:15:27;99220.00;;;13.01;73.46
79415;BME280;68864;44.972;19.612;2023-04-01T08:18:04;99223.47;;;13.19;73.62
79415;BME280;68864;44.972;19.612;2023-04-01T08:20:36;99226.66;;;13.21;73.40
79415;BME280;68864;44.972;19.612;2023-04-01T08:23:11;99229.81;;;13.23;73.11
79415;BME280;68864;44.972;19.612;2023-04-01T08:25:40;99232.25;;;13.21;73.57
79415;BME280;68864;44.972;19.612;2023-04-01T08:28:16;99230.19;;;13.25;72.63
79415;BME280;68864;44.972;19.612;2023-04-01T08:30:47;99233.78;;;13.29;72.66
79415;BME280;68864;44.972;19.612;2023-04-01T08:33:19;99230.19;;;13.29;72.14
79415;BME280;68864;44.972;19.612;2023-04-01T08:35:51;99228.19;;;13.29;72.61
79415;BME280;68864;44.972;19.612;2023-04-01T08:38:23;99229.75;;;13.30;72.54
79415;BME280;68864;44.972;19.612;2023-04-01T08:40:59;99237.34;;;13.30;72.80
79415;BME280;68864;44.972;19.612;2023-04-01T08:44:03;99239.72;;;13.31;72.92
79415;BME280;68864;44.972;19.612;2023-04-01T08:46:51;99234.13;;;13.31;71.84
79415;BME280;68864;44.972;19.612;2023-04-01T08:49:42;99228.59;;;13.24;72.89
79415;BME280;68864;44.972;19.612;2023-04-01T08:52:22;99228.44;;;13.42;72.02
79415;BME280;68864;44.972;19.612;2023-04-01T08:55:15;99221.94;;;13.52;71.63
79415;BME280;68864;44.972;19.612;2023-04-01T08:58:00;99237.28;;;13.37;72.01
79415;BME280;68864;44.972;19.612;2023-04-01T09:00:38;99232.25;;;13.21;72.96
79415;BME280;68864;44.972;19.612;2023-04-01T09:06:29;99220.81;;;12.98;71.66
79415;BME280;68864;44.972;19.612;2023-04-01T09:09:36;99241.94;;;13.09;71.56
79415;BME280;68864;44.972;19.612;2023-04-01T09:12:36;99247.56;;;13.02;72.04
79415;BME280;68864;44.972;19.612;2023-04-01T09:15:21;99251.59;;;12.98;71.03
79415;BME280;68864;44.972;19.612;2023-04-01T09:18:35;99254.88;;;12.86;71.43
79415;BME280;68864;44.972;19.612;2023-04-01T09:21:22;99273.69;;;12.82;71.40
79415;BME280;68864;44.972;19.612;2023-04-01T09:24:17;99272.16;;;12.73;72.77
79415;BME280;68864;44.972;19.612;2023-04-01T09:27:02;99274.06;;;12.84;72.41
79415;BME280;68864;44.972;19.612;2023-04-01T09:29:49;99279.31;;;12.78;72.46
79415;BME280;68864;44.972;19.612;2023-04-01T09:32:40;99282.19;;;12.67;72.25
79415;BME280;68864;44.972;19.612;2023-04-01T09:35:21;99280.59;;;12.66;72.82
79415;BME280;68864;44.972;19.612;2023-04-01T09:37:52;99291.41;;;12.57;75.28
79415;BME280;68864;44.972;19.612;2023-04-01T09:40:31;99290.19;;;12.65;75.13
79415;BME280;68864;44.972;19.612;2023-04-01T09:43:16;99298.59;;;12.58;75.25
79415;BME280;68864;44.972;19.612;2023-04-01T09:46:09;99304.59;;;12.57;74.65
79415;BME280;68864;44.972;19.612;2023-04-01T09:48:46;99301.75;;;12.67;74.80
79415;BME280;68864;44.972;19.612;2023-04-01T09:51:31;99304.91;;;12.73;74.93
79415;BME280;68864;44.972;19.612;2023-04-01T09:54:11;99312.88;;;12.74;73.17
79415;BME280;68864;44.972;19.612;2023-04-01T09:56:57;99308.56;;;12.63;73.93
79415;BME280;68864;44.972;19.612;2023-04-01T10:06:05;99331.75;;;12.60;73.48
79415;BME280;68864;44.972;19.612;2023-04-01T10:08:56;99340.88;;;12.67;73.14
79415;BME280;68864;44.972;19.612;2023-04-01T10:12:05;99338.47;;;12.73;71.93
79415;BME280;68864;44.972;19.612;2023-04-01T10:14:57;99341.63;;;12.79;71.67
79415;BME280;68864;44.972;19.612;2023-04-01T10:18:07;99344.84;;;12.73;72.00
79415;BME280;68864;44.972;19.612;2023-04-01T10:20:46;99345.31;;;12.61;72.40
79415;BME280;68864;44.972;19.612;2023-04-01T10:23:34;99357.28;;;12.62;73.00
79415;BME280;68864;44.972;19.612;2023-04-01T10:29:41;99361.19;;;12.82;72.65
79415;BME280;68864;44.972;19.612;2023-04-01T10:32:38;99353.91;;;12.95;72.61
79415;BME280;68864;44.972;19.612;2023-04-01T10:38:44;99367.06;;;13.02;72.49
79415;BME280;68864;44.972;19.612;2023-04-01T10:47:56;99382.56;;;13.17;73.02
79415;BME280;68864;44.972;19.612;2023-04-01T10:50:47;99373.31;;;13.24;73.02
79415;BME280;68864;44.972;19.612;2023-04-01T10:56:49;99388.09;;;13.28;72.52
79415;BME280;68864;44.972;19.612;2023-04-01T11:09:17;99405.94;;;13.48;72.63
79415;BME280;68864;44.972;19.612;2023-04-01T11:18:42;99380.91;;;13.23;72.17
79415;BME280;68864;44.972;19.612;2023-04-01T11:21:31;99402.00;;;13.38;72.36
79415;BME280;68864;44.972;19.612;2023-04-01T11:24:17;99413.19;;;13.38;72.37
79415;BME280;68864;44.972;19.612;2023-04-01T11:26:57;99411.22;;;13.32;72.55
79415;BME280;68864;44.972;19.612;2023-04-01T11:30:10;99417.63;;;13.36;72.54
79415;BME280;68864;44.972;19.612;2023-04-01T11:32:49;99417.25;;;13.30;72.66
79415;BME280;68864;44.972;19.612;2023-04-01T11:35:32;99407.72;;;13.21;72.54
79415;BME280;68864;44.972;19.612;2023-04-01T11:38:13;99434.81;;;13.31;72.34
79415;BME280;68864;44.972;19.612;2023-04-01T11:40:48;99431.63;;;13.36;73.12
79415;BME280;68864;44.972;19.612;2023-04-01T11:43:26;99442.84;;;13.29;72.65
79415;BME280;68864;44.972;19.612;2023-04-01T11:46:00;99441.63;;;13.33;72.72
79415;BME280;68864;44.972;19.612;2023-04-01T11:51:46;99456.84;;;13.29;73.30
79415;BME280;68864;44.972;19.612;2023-04-01T11:54:28;99457.25;;;13.27;73.17
79415;BME280;68864;44.972;19.612;2023-04-01T11:57:06;99467.19;;;13.32;72.95
79415;BME280;68864;44.972;19.612;2023-04-01T11:59:52;99470.84;;;13.29;73.10
79415;BME280;68864;44.972;19.612;2023-04-01T12:02:29;99468.41;;;13.31;73.40
79415;BME280;68864;44.972;19.612;2023-04-01T12:05:13;99478.78;;;13.34;73.52
79415;BME280;68864;44.972;19.612;2023-04-01T12:08:09;99486.47;;;13.19;73.60
79415;BME280;68864;44.972;19.612;2023-04-01T12:10:45;99483.66;;;13.12;74.00
79415;BME280;68864;44.972;19.612;2023-04-01T12:13:24;99490.09;;;13.09;74.26
79415;BME280;68864;44.972;19.612;2023-04-01T12:16:11;99481.31;;;13.03;74.26
79415;BME280;68864;44.972;19.612;2023-04-01T12:18:48;99486.13;;;12.99;74.03
79415;BME280;68864;44.972;19.612;2023-04-01T12:21:24;99492.56;;;12.96;73.92
79415;BME280;68864;44.972;19.612;2023-04-01T12:26:59;99496.13;;;12.97;74.39
79415;BME280;68864;44.972;19.612;2023-04-01T12:29:48;99467.44;;;12.79;74.96
79415;BME280;68864;44.972;19.612;2023-04-01T12:32:28;99501.34;;;12.95;74.45
79415;BME280;68864;44.972;19.612;2023-04-01T12:35:10;99506.53;;;12.93;74.09
79415;BME280;68864;44.972;19.612;2023-04-01T12:37:43;99510.56;;;12.88;74.12
79415;BME280;68864;44.972;19.612;2023-04-01T12:40:45;99514.19;;;12.82;74.79
79415;BME280;68864;44.972;19.612;2023-04-01T12:43:31;99520.97;;;12.81;74.21
79415;BME280;68864;44.972;19.612;2023-04-01T12:46:04;99524.50;;;12.92;74.26
79415;BME280;68864;44.972;19.612;2023-04-01T13:00:35;99531.41;;;12.62;74.48
79415;BME280;68864;44.972;19.612;2023-04-01T13:03:22;99531.00;;;12.57;74.85
79415;BME280;68864;44.972;19.612;2023-04-01T13:08:59;99540.56;;;12.70;74.93
79415;BME280;68864;44.972;19.612;2023-04-01T13:11:39;99540.56;;;12.73;74.83
79415;BME280;68864;44.972;19.612;2023-04-01T13:14:44;99552.13;;;12.83;74.36
79415;BME280;68864;44.972;19.612;2023-04-01T13:17:20;99549.69;;;12.92;73.60
79415;BME280;68864;44.972;19.612;2023-04-01T13:19:53;99549.25;;;12.97;73.74
79415;BME280;68864;44.972;19.612;2023-04-01T13:22:28;99549.25;;;13.04;73.37
79415;BME280;68864;44.972;19.612;2023-04-01T13:25:02;99552.44;;;13.06;73.62
79415;BME280;68864;44.972;19.612;2023-04-01T13:27:34;99562.03;;;13.08;73.65
79415;BME280;68864;44.972;19.612;2023-04-01T13:30:20;99546.44;;;13.07;73.61
79415;BME280;68864;44.972;19.612;2023-04-01T13:32:57;99550.84;;;13.05;73.24
79415;BME280;68864;44.972;19.612;2023-04-01T13:35:35;99557.25;;;13.09;73.34
79415;BME280;68864;44.972;19.612;2023-04-01T13:38:15;99549.66;;;13.06;73.49
79415;BME280;68864;44.972;19.612;2023-04-01T13:40:51;99553.63;;;13.12;72.76
79415;BME280;68864;44.972;19.612;2023-04-01T13:43:25;99555.63;;;13.19;72.44
79415;BME280;68864;44.972;19.612;2023-04-01T13:46:22;99554.81;;;13.18;73.16
79415;BME280;68864;44.972;19.612;2023-04-01T13:49:12;99550.03;;;13.22;72.99
79415;BME280;68864;44.972;19.612;2023-04-01T13:51:56;99546.00;;;13.23;72.97
79415;BME280;68864;44.972;19.612;2023-04-01T13:55:04;99550.38;;;13.24;72.65
79415;BME280;68864;44.972;19.612;2023-04-01T13:57:48;99548.75;;;13.30;71.97
79415;BME280;68864;44.972;19.612;2023-04-01T14:00:27;99517.25;;;13.12;71.91
79415;BME280;68864;44.972;19.612;2023-04-01T14:03:30;99557.53;;;13.39;71.38
79415;BME280;68864;44.972;19.612;2023-04-01T14:06:30;99549.53;;;13.41;71.90
79415;BME280;68864;44.972;19.612;2023-04-01T14:09:25;99553.09;;;13.45;72.48
79415;BME280;68864;44.972;19.612;2023-04-01T14:12:04;99554.25;;;13.55;71.84
79415;BME280;68864;44.972;19.612;2023-04-01T14:14:45;99549.81;;;13.61;71.61
79415;BME280;68864;44.972;19.612;2023-04-01T14:17:23;99537.41;;;13.59;70.75
79415;BME280;68864;44.972;19.612;2023-04-01T14:20:14;99547.50;;;13.49;71.05
79415;BME280;68864;44.972;19.612;2023-04-01T14:22:54;99538.66;;;13.54;70.23
79415;BME280;68864;44.972;19.612;2023-04-01T14:25:35;99535.88;;;13.54;70.90
79415;BME280;68864;44.972;19.612;2023-04-01T14:28:17;99527.81;;;13.60;71.32
79415;BME280;68864;44.972;19.612;2023-04-01T14:30:59;99541.38;;;13.68;70.79
79415;BME280;68864;44.972;19.612;2023-04-01T14:33:41;99542.50;;;13.78;70.68
79415;BME280;68864;44.972;19.612;2023-04-01T14:36:30;99542.50;;;13.81;70.63
79415;BME280;68864;44.972;19.612;2023-04-01T14:42:02;99533.66;;;13.83;69.63
79415;BME280;68864;44.972;19.612;2023-04-01T14:44:43;99537.19;;;13.90;70.28
79415;BME280;68864;44.972;19.612;2023-04-01T14:47:24;99533.56;;;13.97;69.39